Cooktown, Australia
Current Conditions -  °F | °C
As of 7:00 AM on Wednesday 26 Nov 2014 (Local Time) from YBCS Reporting Station
Rain Showers Rain Showers  
Wind Chill: 77°   Ceiling: Unl
Heat Index: 79°   Visibility: 6mi
Dew Point: 70°   Wind: 12mph
Humidity: 78%   Direction: 140°SE
Pressure: 29.85"   Gusts: NA
Location:  15.47°S, 145.25°E
Report Text: YBCS 252100Z 14010KT 9999 VCSH SCT020 SCT030 25/21 Q1011
Loading
Personal Weather Stations






























Interactive Weather Map New forecast layout! Learn more

10-Day Weather Forecast

Advertisements
Track Severe Weather on mobile